This is the latest recevied weather packets stored in our database for station/object N9XTN-3. If no packets are shown the sender has not sent any weather packets the latest 10 day(s).
| Time | Temp. | Humidity | Pressure | Rain* | Wind** | Luminosity | Snow |
|---|---|---|---|---|---|---|---|
| 1777742416 | 16.11° C | 41% | 1020.6 hPa | 0 mm | - | - | - |
| 1777741516 | 15.56° C | 39% | 1020.8 hPa | 0 mm | - | - | - |
| 1777738817 | 14.44° C | 47% | 1021.2 hPa | 0 mm | - | - | - |
| 1777735216 | 12.22° C | 53% | 1021.8 hPa | 0 mm | - | - | - |
| 1777732816 | 10° C | 62% | 1021.8 hPa | 0 mm | - | - | - |
| 1777730417 | 7.78° C | 67% | 1021.8 hPa | 0 mm | - | - | - |
| 1777730117 | 7.22° C | 71% | 1021.8 hPa | 0 mm | - | - | - |
| 1777728317 | 5.56° C | 74% | 1022 hPa | 0 mm | - | - | - |
| 1777723817 | 0.56° C | 89% | 1021.2 hPa | 0 mm | - | - | - |
| 1777723516 | 0° C | 90% | 1021.2 hPa | 0 mm | - | - | - |
| 1777722916 | -0.56° C | 89% | 1021.1 hPa | 0 mm | - | - | - |
| 1777720517 | -0.56° C | 86% | 1021.1 hPa | 0 mm | - | - | - |
| 1777719637 | -0.56° C | 85% | 1021.1 hPa | 0 mm | - | - | - |
| 1777717237 | 0° C | 84% | 1021.1 hPa | 0 mm | - | - | - |
| 1777715417 | 0° C | 84% | 1021 hPa | 0 mm | - | - | - |
| 1777714216 | 0.56° C | 83% | 1020.8 hPa | 0 mm | - | - | - |
| 1777713337 | 0.56° C | 83% | 1020.8 hPa | 0 mm | - | - | - |
| 1777710616 | 1.11° C | 79% | 1020.6 hPa | 0 mm | - | - | - |
| 1777709417 | 1.11° C | 80% | 1020.5 hPa | 0 mm | - | - | - |
| 1777709137 | 1.11° C | 79% | 1020.5 hPa | 0 mm | - | - | - |
| 1777708817 | 1.67° C | 80% | 1020.7 hPa | 0 mm | - | - | - |
| 1777703117 | 2.78° C | 76% | 1020.8 hPa | 0 mm | - | - | - |
| 1777702803 | 2.78° C | 76% | 1020.8 hPa | 0 mm | - | - | - |
| 1777702537 | 2.78° C | 76% | 1020.7 hPa | 0 mm | - | - | - |
| 1777701017 | 3.89° C | 77% | 1020.7 hPa | 0 mm | - | - | - |
* Rain latest hour (hover to see other rain measurements)
** Current wind speed in m/s (hover to see current wind gust speed)